Sointula, Canada
Current Conditions -  °F | °C
As of 6:00 PM on Friday 31 Oct 2014 (Local Time) from CYZT Reporting Station
Rain Showers Rain Showers  
Wind Chill: 48°   Ceiling: 5200
Heat Index: 48°   Visibility: 20mi
Dew Point: 46°   Wind: 2mph
Humidity: 93%   Direction: NA
Pressure: 29.8"   Gusts: NA
Location:  50.63°N, 127.02°W
Report Text: CYZT 010100Z VRB02KT 20SM VCSH FEW033 BKN052TCU BKN100 09/08 A2980 RMK SC1TCU5AC2 SC TR SLP091
Loading
Personal Weather Stations






























Interactive Weather Map
Tropical Storm Tracking
New forecast layout! Learn more

10-Day Weather Forecast

Advertisements
Track Severe Weather on mobile